sensor_id;sensor_type;location;lat;lon;timestamp;pressure;altitude;pressure_sealevel;temperature;humidity
39051;BME280;24805;55.852;37.644;2023-02-01T00:02:58;98053.13;;;2.91;64.86
39051;BME280;24805;55.852;37.644;2023-02-01T00:08:00;98056.06;;;2.88;64.92
39051;BME280;24805;55.852;37.644;2023-02-01T00:13:02;98061.63;;;2.85;65.32
39051;BME280;24805;55.852;37.644;2023-02-01T00:18:04;98038.06;;;2.85;65.51
39051;BME280;24805;55.852;37.644;2023-02-01T00:23:06;98055.25;;;2.87;65.94
39051;BME280;24805;55.852;37.644;2023-02-01T00:28:10;98041.69;;;2.75;66.42
39051;BME280;24805;55.852;37.644;2023-02-01T00:33:14;98057.53;;;2.82;66.69
39051;BME280;24805;55.852;37.644;2023-02-01T00:38:18;98051.63;;;2.80;66.02
39051;BME280;24805;55.852;37.644;2023-02-01T00:43:20;98049.53;;;2.75;65.36
39051;BME280;24805;55.852;37.644;2023-02-01T00:48:25;98055.44;;;2.78;65.88
39051;BME280;24805;55.852;37.644;2023-02-01T00:53:27;98051.81;;;2.87;65.10
39051;BME280;24805;55.852;37.644;2023-02-01T00:58:30;98044.13;;;2.85;64.32
39051;BME280;24805;55.852;37.644;2023-02-01T01:03:33;98041.16;;;2.88;64.99
39051;BME280;24805;55.852;37.644;2023-02-01T01:08:36;98058.69;;;2.88;64.82
39051;BME280;24805;55.852;37.644;2023-02-01T01:13:39;98062.28;;;2.95;64.25
39051;BME280;24805;55.852;37.644;2023-02-01T01:18:42;98057.69;;;2.89;64.33
39051;BME280;24805;55.852;37.644;2023-02-01T01:23:45;98054.75;;;2.92;64.01
39051;BME280;24805;55.852;37.644;2023-02-01T01:28:48;98033.66;;;2.77;64.12
39051;BME280;24805;55.852;37.644;2023-02-01T01:33:51;98068.69;;;2.92;63.79
39051;BME280;24805;55.852;37.644;2023-02-01T01:38:54;98058.84;;;2.94;64.17
39051;BME280;24805;55.852;37.644;2023-02-01T01:44:02;98066.19;;;3.07;63.64
39051;BME280;24805;55.852;37.644;2023-02-01T01:49:11;98071.59;;;3.14;63.18
39051;BME280;24805;55.852;37.644;2023-02-01T01:54:30;98061.47;;;3.19;63.77
39051;BME280;24805;55.852;37.644;2023-02-01T01:59:36;98068.66;;;3.08;63.04
39051;BME280;24805;55.852;37.644;2023-02-01T02:04:40;98085.19;;;3.09;63.04
39051;BME280;24805;55.852;37.644;2023-02-01T02:09:43;98055.56;;;3.00;63.01
39051;BME280;24805;55.852;37.644;2023-02-01T02:15:00;98076.72;;;2.99;63.11
39051;BME280;24805;55.852;37.644;2023-02-01T02:26:40;98088.78;;;3.00;63.12
39051;BME280;24805;55.852;37.644;2023-02-01T02:52:40;98087.50;;;3.12;63.05
39051;BME280;24805;55.852;37.644;2023-02-01T02:58:05;98084.72;;;3.14;62.58
39051;BME280;24805;55.852;37.644;2023-02-01T03:03:27;98092.41;;;3.07;62.54
39051;BME280;24805;55.852;37.644;2023-02-01T03:08:48;98097.00;;;3.13;62.74
39051;BME280;24805;55.852;37.644;2023-02-01T03:13:59;98090.09;;;3.28;62.56
39051;BME280;24805;55.852;37.644;2023-02-01T03:19:25;98088.94;;;3.31;62.67
39051;BME280;24805;55.852;37.644;2023-02-01T03:24:40;98100.41;;;3.22;62.49
39051;BME280;24805;55.852;37.644;2023-02-01T03:35:12;98103.69;;;3.07;62.46
39051;BME280;24805;55.852;37.644;2023-02-01T03:40:17;98097.66;;;3.07;62.58
39051;BME280;24805;55.852;37.644;2023-02-01T03:45:29;98107.97;;;3.08;62.45
39051;BME280;24805;55.852;37.644;2023-02-01T03:50:34;98119.44;;;3.07;62.53
39051;BME280;24805;55.852;37.644;2023-02-01T03:55:41;98109.44;;;3.03;62.18
39051;BME280;24805;55.852;37.644;2023-02-01T04:00:46;98118.94;;;3.12;62.87
39051;BME280;24805;55.852;37.644;2023-02-01T04:05:52;98118.09;;;3.03;62.51
39051;BME280;24805;55.852;37.644;2023-02-01T04:10:57;98135.47;;;3.04;62.69
39051;BME280;24805;55.852;37.644;2023-02-01T04:16:00;98142.53;;;3.12;62.41
39051;BME280;24805;55.852;37.644;2023-02-01T04:21:02;98132.88;;;3.13;62.44
39051;BME280;24805;55.852;37.644;2023-02-01T04:26:04;98135.97;;;3.08;63.04
39051;BME280;24805;55.852;37.644;2023-02-01T04:31:07;98171.03;;;2.99;62.91
39051;BME280;24805;55.852;37.644;2023-02-01T04:36:09;98156.78;;;3.09;62.67
39051;BME280;24805;55.852;37.644;2023-02-01T04:41:11;98158.72;;;3.07;62.93
39051;BME280;24805;55.852;37.644;2023-02-01T04:46:14;98158.72;;;3.07;62.94
39051;BME280;24805;55.852;37.644;2023-02-01T04:51:16;98171.66;;;3.09;62.88
39051;BME280;24805;55.852;37.644;2023-02-01T04:56:19;98170.22;;;3.15;62.91
39051;BME280;24805;55.852;37.644;2023-02-01T05:01:23;98177.25;;;3.14;62.50
39051;BME280;24805;55.852;37.644;2023-02-01T05:06:26;98177.91;;;3.16;62.10
39051;BME280;24805;55.852;37.644;2023-02-01T05:11:28;98177.59;;;3.19;62.78
39051;BME280;24805;55.852;37.644;2023-02-01T05:16:49;98185.25;;;3.21;62.15
39051;BME280;24805;55.852;37.644;2023-02-01T05:21:51;98190.03;;;3.17;63.28
39051;BME280;24805;55.852;37.644;2023-02-01T05:26:54;98188.56;;;3.15;63.36
39051;BME280;24805;55.852;37.644;2023-02-01T05:31:56;98192.00;;;3.15;63.60
39051;BME280;24805;55.852;37.644;2023-02-01T05:37:05;98189.22;;;3.17;62.96
39051;BME280;24805;55.852;37.644;2023-02-01T05:42:08;98200.00;;;3.22;63.71
39051;BME280;24805;55.852;37.644;2023-02-01T05:47:10;98195.59;;;3.22;63.48
39051;BME280;24805;55.852;37.644;2023-02-01T05:52:12;98206.56;;;3.26;63.44
39051;BME280;24805;55.852;37.644;2023-02-01T05:57:14;98210.00;;;3.26;63.34
39051;BME280;24805;55.852;37.644;2023-02-01T06:02:16;98200.50;;;3.25;62.89
39051;BME280;24805;55.852;37.644;2023-02-01T06:07:19;98198.69;;;3.26;63.40
39051;BME280;24805;55.852;37.644;2023-02-01T06:12:21;98215.44;;;3.33;63.78
39051;BME280;24805;55.852;37.644;2023-02-01T06:17:23;98229.19;;;3.35;63.49
39051;BME280;24805;55.852;37.644;2023-02-01T06:22:25;98228.03;;;3.29;64.35
39051;BME280;24805;55.852;37.644;2023-02-01T06:27:27;98229.66;;;3.22;64.30
39051;BME280;24805;55.852;37.644;2023-02-01T06:32:31;98218.84;;;3.17;64.48
39051;BME280;24805;55.852;37.644;2023-02-01T06:37:33;98225.22;;;3.23;65.12
39051;BME280;24805;55.852;37.644;2023-02-01T06:42:35;98237.50;;;3.22;64.30
39051;BME280;24805;55.852;37.644;2023-02-01T06:47:37;98238.84;;;3.26;64.27
39051;BME280;24805;55.852;37.644;2023-02-01T06:52:40;98234.41;;;3.27;63.62
39051;BME280;24805;55.852;37.644;2023-02-01T06:57:42;98240.31;;;3.29;63.52
39051;BME280;24805;55.852;37.644;2023-02-01T07:02:44;98244.75;;;3.28;62.97
39051;BME280;24805;55.852;37.644;2023-02-01T07:07:46;98235.56;;;3.32;63.19
39051;BME280;24805;55.852;37.644;2023-02-01T07:12:48;98250.47;;;3.24;63.54
39051;BME280;24805;55.852;37.644;2023-02-01T07:17:54;98240.97;;;3.31;63.52
39051;BME280;24805;55.852;37.644;2023-02-01T07:22:57;98242.44;;;3.17;63.92
39051;BME280;24805;55.852;37.644;2023-02-01T07:27:59;98251.44;;;3.23;64.60
39051;BME280;24805;55.852;37.644;2023-02-01T07:33:01;98262.09;;;3.13;64.69
39051;BME280;24805;55.852;37.644;2023-02-01T07:38:03;98264.38;;;3.16;65.21
39051;BME280;24805;55.852;37.644;2023-02-01T07:43:05;98274.56;;;3.19;64.31
39051;BME280;24805;55.852;37.644;2023-02-01T07:48:09;98267.84;;;3.17;64.00
39051;BME280;24805;55.852;37.644;2023-02-01T07:53:11;98258.34;;;3.16;63.87
39051;BME280;24805;55.852;37.644;2023-02-01T07:58:13;98271.94;;;3.19;63.17
39051;BME280;24805;55.852;37.644;2023-02-01T08:03:15;98267.69;;;3.18;62.96
39051;BME280;24805;55.852;37.644;2023-02-01T08:08:18;98269.31;;;3.27;63.27
39051;BME280;24805;55.852;37.644;2023-02-01T08:13:20;98267.34;;;3.29;62.66
39051;BME280;24805;55.852;37.644;2023-02-01T08:18:22;98259.66;;;3.36;62.62
39051;BME280;24805;55.852;37.644;2023-02-01T08:23:24;98261.63;;;3.42;62.21
39051;BME280;24805;55.852;37.644;2023-02-01T08:28:26;98259.00;;;3.34;62.60
39051;BME280;24805;55.852;37.644;2023-02-01T08:33:29;98262.13;;;3.37;62.16
39051;BME280;24805;55.852;37.644;2023-02-01T08:38:31;98258.69;;;3.45;61.62
39051;BME280;24805;55.852;37.644;2023-02-01T08:43:33;98259.81;;;3.34;62.09
39051;BME280;24805;55.852;37.644;2023-02-01T08:48:36;98270.78;;;3.30;61.66
39051;BME280;24805;55.852;37.644;2023-02-01T08:53:39;98250.16;;;3.19;62.22
39051;BME280;24805;55.852;37.644;2023-02-01T08:58:44;98250.47;;;3.24;62.08
39051;BME280;24805;55.852;37.644;2023-02-01T09:03:47;98245.09;;;3.33;61.63
39051;BME280;24805;55.852;37.644;2023-02-01T09:08:49;98244.59;;;3.38;61.48
39051;BME280;24805;55.852;37.644;2023-02-01T09:13:51;98257.38;;;3.49;61.49
39051;BME280;24805;55.852;37.644;2023-02-01T09:18:53;98253.75;;;3.42;61.41
39051;BME280;24805;55.852;37.644;2023-02-01T09:24:15;98241.16;;;3.54;61.59
39051;BME280;24805;55.852;37.644;2023-02-01T09:29:17;98245.91;;;3.66;61.43
39051;BME280;24805;55.852;37.644;2023-02-01T09:34:19;98235.91;;;3.70;61.11
39051;BME280;24805;55.852;37.644;2023-02-01T09:39:22;98229.00;;;3.69;61.12
39051;BME280;24805;55.852;37.644;2023-02-01T09:50:18;98222.94;;;3.68;61.22
39051;BME280;24805;55.852;37.644;2023-02-01T09:55:36;98234.25;;;3.77;61.13
39051;BME280;24805;55.852;37.644;2023-02-01T10:00:41;98235.06;;;3.61;60.09
39051;BME280;24805;55.852;37.644;2023-02-01T10:16:43;98235.09;;;3.53;61.07
39051;BME280;24805;55.852;37.644;2023-02-01T10:22:01;98248.34;;;3.43;60.69
39051;BME280;24805;55.852;37.644;2023-02-01T10:32:19;98229.66;;;3.22;60.91
39051;BME280;24805;55.852;37.644;2023-02-01T10:37:33;98219.53;;;3.19;61.30
39051;BME280;24805;55.852;37.644;2023-02-01T10:42:35;98222.44;;;3.08;61.50
39051;BME280;24805;55.852;37.644;2023-02-01T10:47:37;98223.75;;;3.12;61.62
39051;BME280;24805;55.852;37.644;2023-02-01T10:52:44;98228.00;;;3.21;62.86
39051;BME280;24805;55.852;37.644;2023-02-01T10:57:56;98223.28;;;3.25;62.65
39051;BME280;24805;55.852;37.644;2023-02-01T11:02:58;98213.94;;;3.14;63.32
39051;BME280;24805;55.852;37.644;2023-02-01T11:08:01;98221.97;;;3.13;63.87
39051;BME280;24805;55.852;37.644;2023-02-01T11:13:04;98229.94;;;3.03;64.52
39051;BME280;24805;55.852;37.644;2023-02-01T11:18:26;98214.72;;;3.06;64.67
39051;BME280;24805;55.852;37.644;2023-02-01T11:23:29;98227.66;;;2.92;65.27
39051;BME280;24805;55.852;37.644;2023-02-01T11:28:35;98226.50;;;2.86;65.81
39051;BME280;24805;55.852;37.644;2023-02-01T11:33:51;98224.38;;;2.90;66.44
39051;BME280;24805;55.852;37.644;2023-02-01T11:44:37;98238.75;;;2.86;65.90
39051;BME280;24805;55.852;37.644;2023-02-01T11:49:40;98240.53;;;2.69;66.03
39051;BME280;24805;55.852;37.644;2023-02-01T12:00:02;98241.75;;;2.49;64.87
39051;BME280;24805;55.852;37.644;2023-02-01T12:10:52;98253.41;;;2.54;64.86
39051;BME280;24805;55.852;37.644;2023-02-01T12:32:22;98266.34;;;2.64;63.48
39051;BME280;24805;55.852;37.644;2023-02-01T12:42:57;98262.59;;;2.66;63.39
39051;BME280;24805;55.852;37.644;2023-02-01T12:53:42;98270.31;;;2.68;63.44
39051;BME280;24805;55.852;37.644;2023-02-01T12:58:51;98274.38;;;2.62;63.02
39051;BME280;24805;55.852;37.644;2023-02-01T13:04:12;98271.44;;;2.65;62.85
39051;BME280;24805;55.852;37.644;2023-02-01T13:09:37;98271.78;;;2.70;63.02
39051;BME280;24805;55.852;37.644;2023-02-01T13:14:56;98264.91;;;2.69;62.85
39051;BME280;24805;55.852;37.644;2023-02-01T13:25:43;98278.94;;;2.60;62.38
39051;BME280;24805;55.852;37.644;2023-02-01T13:42:16;98295.81;;;2.58;61.12
39051;BME280;24805;55.852;37.644;2023-02-01T13:52:33;98276.97;;;2.54;60.79
39051;BME280;24805;55.852;37.644;2023-02-01T13:57:38;98276.97;;;2.54;60.51
39051;BME280;24805;55.852;37.644;2023-02-01T14:18:58;98282.06;;;2.64;59.50
39051;BME280;24805;55.852;37.644;2023-02-01T14:24:04;98292.16;;;2.51;59.19
39051;BME280;24805;55.852;37.644;2023-02-01T14:34:34;98282.50;;;2.51;59.17
39051;BME280;24805;55.852;37.644;2023-02-01T14:39:52;98285.19;;;2.59;59.16
39051;BME280;24805;55.852;37.644;2023-02-01T14:50:44;98295.16;;;2.64;60.07
39051;BME280;24805;55.852;37.644;2023-02-01T14:56:07;98297.25;;;2.52;59.82
39051;BME280;24805;55.852;37.644;2023-02-01T15:17:21;98307.63;;;2.36;60.58
39051;BME280;24805;55.852;37.644;2023-02-01T15:22:24;98304.75;;;2.21;60.64
39051;BME280;24805;55.852;37.644;2023-02-01T15:27:28;98324.03;;;2.20;60.44
39051;BME280;24805;55.852;37.644;2023-02-01T15:32:38;98321.47;;;2.28;60.73
39051;BME280;24805;55.852;37.644;2023-02-01T15:37:41;98333.44;;;2.31;60.48
39051;BME280;24805;55.852;37.644;2023-02-01T15:42:53;98332.47;;;2.32;60.43
39051;BME280;24805;55.852;37.644;2023-02-01T15:47:57;98330.91;;;2.21;60.14
39051;BME280;24805;55.852;37.644;2023-02-01T15:52:59;98330.41;;;2.18;60.50
39051;BME280;24805;55.852;37.644;2023-02-01T15:58:06;98322.34;;;2.11;60.79
39051;BME280;24805;55.852;37.644;2023-02-01T16:03:25;98339.81;;;2.28;60.05
39051;BME280;24805;55.852;37.644;2023-02-01T16:08:29;98335.81;;;2.16;60.42
39051;BME280;24805;55.852;37.644;2023-02-01T16:13:34;98337.53;;;2.07;60.15
39051;BME280;24805;55.852;37.644;2023-02-01T16:18:36;98345.22;;;2.09;60.33
39051;BME280;24805;55.852;37.644;2023-02-01T16:23:38;98345.69;;;2.04;60.04
39051;BME280;24805;55.852;37.644;2023-02-01T16:28:40;98357.25;;;2.02;60.07
39051;BME280;24805;55.852;37.644;2023-02-01T16:33:42;98345.16;;;2.01;60.20
39051;BME280;24805;55.852;37.644;2023-02-01T16:38:45;98344.13;;;1.94;60.80
39051;BME280;24805;55.852;37.644;2023-02-01T16:43:53;98351.22;;;2.01;60.84
39051;BME280;24805;55.852;37.644;2023-02-01T16:48:57;98364.50;;;2.08;60.40
39051;BME280;24805;55.852;37.644;2023-02-01T16:54:00;98359.81;;;2.12;60.33
39051;BME280;24805;55.852;37.644;2023-02-01T16:59:03;98368.47;;;2.12;60.75
39051;BME280;24805;55.852;37.644;2023-02-01T17:04:05;98370.28;;;2.12;60.52
39051;BME280;24805;55.852;37.644;2023-02-01T17:09:09;98363.97;;;2.22;60.89
39051;BME280;24805;55.852;37.644;2023-02-01T17:14:20;98376.44;;;2.28;61.26
39051;BME280;24805;55.852;37.644;2023-02-01T17:19:23;98369.88;;;2.24;60.52
39051;BME280;24805;55.852;37.644;2023-02-01T17:24:28;98358.94;;;2.29;60.41
39051;BME280;24805;55.852;37.644;2023-02-01T17:29:48;98358.88;;;2.21;59.86
39051;BME280;24805;55.852;37.644;2023-02-01T17:34:50;98357.25;;;2.20;60.38
39051;BME280;24805;55.852;37.644;2023-02-01T17:39:53;98353.44;;;2.14;60.16
39051;BME280;24805;55.852;37.644;2023-02-01T17:50:12;98363.69;;;2.07;60.78
39051;BME280;24805;55.852;37.644;2023-02-01T17:55:17;98360.25;;;2.07;60.89
39051;BME280;24805;55.852;37.644;2023-02-01T18:00:20;98358.72;;;1.96;61.07
39051;BME280;24805;55.852;37.644;2023-02-01T18:05:27;98354.31;;;1.97;61.17
39051;BME280;24805;55.852;37.644;2023-02-01T18:10:30;98349.00;;;1.89;61.01
39051;BME280;24805;55.852;37.644;2023-02-01T18:15:32;98337.00;;;1.78;61.00
39051;BME280;24805;55.852;37.644;2023-02-01T18:20:34;98349.00;;;1.89;60.66
39051;BME280;24805;55.852;37.644;2023-02-01T18:25:37;98348.91;;;1.81;61.03
39051;BME280;24805;55.852;37.644;2023-02-01T18:30:39;98349.66;;;1.91;60.81
39051;BME280;24805;55.852;37.644;2023-02-01T18:35:43;98348.41;;;1.95;60.68
39051;BME280;24805;55.852;37.644;2023-02-01T18:40:49;98350.38;;;2.01;60.84
39051;BME280;24805;55.852;37.644;2023-02-01T18:45:52;98346.13;;;2.00;60.29
39051;BME280;24805;55.852;37.644;2023-02-01T18:50:55;98348.09;;;1.98;60.00
39051;BME280;24805;55.852;37.644;2023-02-01T18:55:58;98339.44;;;1.97;59.78
39051;BME280;24805;55.852;37.644;2023-02-01T19:01:07;98343.22;;;2.03;60.28
39051;BME280;24805;55.852;37.644;2023-02-01T19:06:15;98341.28;;;1.87;60.13
39051;BME280;24805;55.852;37.644;2023-02-01T19:11:17;98350.25;;;1.85;60.29
39051;BME280;24805;55.852;37.644;2023-02-01T19:16:19;98348.47;;;1.85;60.34
39051;BME280;24805;55.852;37.644;2023-02-01T19:21:21;98351.47;;;1.90;59.93
39051;BME280;24805;55.852;37.644;2023-02-01T19:26:23;98352.44;;;1.89;60.15
39051;BME280;24805;55.852;37.644;2023-02-01T19:31:25;98352.13;;;1.92;59.90
39051;BME280;24805;55.852;37.644;2023-02-01T19:36:27;98360.50;;;1.96;59.97
39051;BME280;24805;55.852;37.644;2023-02-01T19:41:30;98354.91;;;1.91;60.26
39051;BME280;24805;55.852;37.644;2023-02-01T19:46:32;98357.00;;;1.87;60.77
39051;BME280;24805;55.852;37.644;2023-02-01T19:51:34;98363.72;;;1.72;61.99
39051;BME280;24805;55.852;37.644;2023-02-01T19:56:36;98357.72;;;1.62;63.61
39051;BME280;24805;55.852;37.644;2023-02-01T20:01:39;98365.22;;;1.57;63.21
39051;BME280;24805;55.852;37.644;2023-02-01T20:06:43;98367.97;;;1.37;65.25
39051;BME280;24805;55.852;37.644;2023-02-01T20:11:52;98365.78;;;1.33;65.05
39051;BME280;24805;55.852;37.644;2023-02-01T20:16:55;98368.56;;;1.31;64.85
39051;BME280;24805;55.852;37.644;2023-02-01T20:21:58;98361.81;;;1.29;64.63
39051;BME280;24805;55.852;37.644;2023-02-01T20:27:01;98369.53;;;1.30;64.22
39051;BME280;24805;55.852;37.644;2023-02-01T20:32:03;98377.50;;;1.29;64.29
39051;BME280;24805;55.852;37.644;2023-02-01T20:37:05;98370.63;;;1.28;64.75
39051;BME280;24805;55.852;37.644;2023-02-01T20:42:08;98370.78;;;1.26;64.63
39051;BME280;24805;55.852;37.644;2023-02-01T20:47:10;98383.69;;;1.28;64.60
39051;BME280;24805;55.852;37.644;2023-02-01T20:52:12;98382.06;;;1.27;64.46
39051;BME280;24805;55.852;37.644;2023-02-01T20:57:14;98376.44;;;1.22;64.86
39051;BME280;24805;55.852;37.644;2023-02-01T21:02:17;98379.44;;;1.27;64.89
39051;BME280;24805;55.852;37.644;2023-02-01T21:07:19;98378.91;;;1.23;65.19
39051;BME280;24805;55.852;37.644;2023-02-01T21:12:21;98377.94;;;1.24;65.54
39051;BME280;24805;55.852;37.644;2023-02-01T21:17:23;98373.81;;;1.22;65.27
39051;BME280;24805;55.852;37.644;2023-02-01T21:22:29;98377.41;;;1.21;65.63
39051;BME280;24805;55.852;37.644;2023-02-01T21:27:31;98372.03;;;1.22;65.17
39051;BME280;24805;55.852;37.644;2023-02-01T21:32:33;98374.34;;;1.25;65.20
39051;BME280;24805;55.852;37.644;2023-02-01T21:37:35;98366.38;;;1.27;65.26
39051;BME280;24805;55.852;37.644;2023-02-01T21:42:38;98378.19;;;1.31;64.85
39051;BME280;24805;55.852;37.644;2023-02-01T21:47:41;98372.97;;;1.31;65.26
39051;BME280;24805;55.852;37.644;2023-02-01T21:52:43;98372.66;;;1.34;65.04
39051;BME280;24805;55.852;37.644;2023-02-01T21:57:45;98376.41;;;1.31;65.12
39051;BME280;24805;55.852;37.644;2023-02-01T22:02:48;98383.69;;;1.28;65.66
39051;BME280;24805;55.852;37.644;2023-02-01T22:07:50;98376.41;;;1.31;65.48
39051;BME280;24805;55.852;37.644;2023-02-01T22:12:53;98373.38;;;1.26;65.45
39051;BME280;24805;55.852;37.644;2023-02-01T22:17:55;98371.56;;;1.09;65.88
39051;BME280;24805;55.852;37.644;2023-02-01T22:22:57;98369.19;;;1.16;66.18
39051;BME280;24805;55.852;37.644;2023-02-01T22:27:59;98363.44;;;1.12;65.90
39051;BME280;24805;55.852;37.644;2023-02-01T22:33:21;98371.69;;;1.35;64.76
39051;BME280;24805;55.852;37.644;2023-02-01T22:38:22;98362.34;;;1.15;65.54
39051;BME280;24805;55.852;37.644;2023-02-01T22:43:26;98356.72;;;1.10;66.07
39051;BME280;24805;55.852;37.644;2023-02-01T22:48:29;98351.34;;;1.11;65.98
39051;BME280;24805;55.852;37.644;2023-02-01T22:53:32;98364.34;;;1.21;65.92
39051;BME280;24805;55.852;37.644;2023-02-01T22:58:34;98362.25;;;1.24;65.41
39051;BME280;24805;55.852;37.644;2023-02-01T23:03:37;98357.31;;;1.21;65.34
39051;BME280;24805;55.852;37.644;2023-02-01T23:08:39;98348.66;;;1.21;65.50
39051;BME280;24805;55.852;37.644;2023-02-01T23:13:42;98367.63;;;1.23;65.33
39051;BME280;24805;55.852;37.644;2023-02-01T23:18:46;98361.91;;;1.19;65.71
39051;BME280;24805;55.852;37.644;2023-02-01T23:23:50;98358.81;;;1.24;65.52
39051;BME280;24805;55.852;37.644;2023-02-01T23:28:53;98357.19;;;1.23;65.63
39051;BME280;24805;55.852;37.644;2023-02-01T23:33:57;98358.53;;;1.27;65.96
39051;BME280;24805;55.852;37.644;2023-02-01T23:39:00;98361.53;;;1.32;65.24
39051;BME280;24805;55.852;37.644;2023-02-01T23:44:03;98354.28;;;1.44;65.32
39051;BME280;24805;55.852;37.644;2023-02-01T23:49:06;98358.34;;;1.38;65.15
39051;BME280;24805;55.852;37.644;2023-02-01T23:54:10;98349.81;;;1.36;65.30
39051;BME280;24805;55.852;37.644;2023-02-01T23:59:14;98357.53;;;1.37;64.95
